createdAt,value
2019-03-22T00:00:27.671Z,8.89
2019-03-22T00:01:27.655Z,8.92
2019-03-22T00:02:27.626Z,8.89
2019-03-22T00:03:27.670Z,8.91
2019-03-22T00:04:27.582Z,8.92
2019-03-22T00:05:27.560Z,8.86
2019-03-22T00:06:27.538Z,8.77
2019-03-22T00:07:27.520Z,8.79
2019-03-22T00:08:27.495Z,8.89
2019-03-22T00:09:27.474Z,8.84
2019-03-22T00:10:27.460Z,8.92
2019-03-22T00:11:27.429Z,8.94
2019-03-22T00:12:27.407Z,8.89
2019-03-22T00:13:27.389Z,8.89
2019-03-22T00:14:27.365Z,8.91
2019-03-22T00:15:27.348Z,9.01
2019-03-22T00:16:27.320Z,9.11
2019-03-22T00:17:27.298Z,9.21
2019-03-22T00:18:27.276Z,9.14
2019-03-22T00:19:27.264Z,9.11
2019-03-22T00:20:27.233Z,9.13
2019-03-22T00:21:27.211Z,9.18
2019-03-22T00:22:27.187Z,9.20
2019-03-22T00:23:27.167Z,9.20
2019-03-22T00:24:27.162Z,9.17
2019-03-22T00:25:27.128Z,9.23
2019-03-22T00:26:27.105Z,9.18
2019-03-22T00:27:27.089Z,9.21
2019-03-22T00:28:27.056Z,9.28
2019-03-22T00:29:27.037Z,9.20
2019-03-22T00:30:27.014Z,9.11
2019-03-22T00:31:26.996Z,9.17
2019-03-22T00:32:26.969Z,9.08
2019-03-22T00:33:26.952Z,9.15
2019-03-22T00:34:26.927Z,9.18
2019-03-22T00:35:26.911Z,9.10
2019-03-22T00:36:26.884Z,9.20
2019-03-22T00:37:26.870Z,9.24
2019-03-22T00:38:26.838Z,9.26
2019-03-22T00:39:26.818Z,9.26
2019-03-22T00:40:26.794Z,9.21
2019-03-22T00:41:26.773Z,9.13
2019-03-22T00:42:26.753Z,9.13
2019-03-22T00:43:26.728Z,9.15
2019-03-22T00:44:26.709Z,9.18
2019-03-22T00:45:26.686Z,9.11
2019-03-22T00:46:26.664Z,9.14
2019-03-22T00:47:26.642Z,9.11
2019-03-22T00:48:26.621Z,9.13
2019-03-22T00:49:26.602Z,9.11
2019-03-22T00:50:26.578Z,9.11
2019-03-22T00:51:26.555Z,9.11
2019-03-22T00:52:26.532Z,9.13
2019-03-22T00:53:26.522Z,9.15
2019-03-22T00:54:26.493Z,9.11
2019-03-22T00:55:26.501Z,9.02
2019-03-22T00:56:26.447Z,8.98
2019-03-22T00:57:28.822Z,8.96
2019-03-22T00:58:26.402Z,8.96
2019-03-22T00:59:26.382Z,8.91
2019-03-22T01:00:26.357Z,8.96
2019-03-22T01:01:26.338Z,8.99
2019-03-22T01:02:26.329Z,8.92
2019-03-22T01:03:26.291Z,8.89
2019-03-22T01:04:26.282Z,8.92
2019-03-22T01:05:26.257Z,8.89
2019-03-22T01:06:26.230Z,8.94
2019-03-22T01:07:26.208Z,8.86
2019-03-22T01:08:26.182Z,8.92
2019-03-22T01:09:26.171Z,8.89
2019-03-22T01:10:26.150Z,9.01
2019-03-22T01:11:26.116Z,8.96
2019-03-22T01:12:26.099Z,8.77
2019-03-22T01:13:26.075Z,8.86
2019-03-22T01:14:26.055Z,8.74
2019-03-22T01:15:26.029Z,8.68
2019-03-22T01:16:26.013Z,8.66
2019-03-22T01:17:25.992Z,8.70
2019-03-22T01:18:25.966Z,8.62
2019-03-22T01:19:25.943Z,8.63
2019-03-22T01:20:25.921Z,8.63
2019-03-22T01:21:25.899Z,8.65
2019-03-22T01:22:25.882Z,8.68
2019-03-22T01:23:25.855Z,8.71
2019-03-22T01:24:25.845Z,8.65
2019-03-22T01:25:25.811Z,8.65
2019-03-22T01:26:25.791Z,8.73
2019-03-22T01:27:25.768Z,8.68
2019-03-22T01:28:25.752Z,8.58
2019-03-22T01:29:25.740Z,8.55
2019-03-22T01:30:25.705Z,8.47
2019-03-22T01:31:25.683Z,8.38
2019-03-22T01:32:25.658Z,8.43
2019-03-22T01:33:25.637Z,8.41
2019-03-22T01:34:25.624Z,8.41
2019-03-22T01:35:25.594Z,8.41
2019-03-22T01:36:25.571Z,8.43
2019-03-22T01:37:25.552Z,8.36
2019-03-22T01:38:25.527Z,8.41
2019-03-22T01:39:25.510Z,8.44
2019-03-22T01:40:25.491Z,8.53
2019-03-22T01:41:25.466Z,8.52
2019-03-22T01:42:25.440Z,8.62
2019-03-22T01:43:25.426Z,8.53
2019-03-22T01:44:25.407Z,8.70
2019-03-22T01:45:25.379Z,8.70
2019-03-22T01:46:25.354Z,8.66
2019-03-22T01:47:25.330Z,8.83
2019-03-22T01:48:25.309Z,8.83
2019-03-22T01:49:25.305Z,8.77
2019-03-22T01:50:25.266Z,8.87
2019-03-22T01:51:25.243Z,8.83
2019-03-22T01:52:25.221Z,8.91
2019-03-22T01:53:25.201Z,8.89
2019-03-22T01:54:25.179Z,8.86
2019-03-22T01:55:25.156Z,8.91
2019-03-22T01:56:25.132Z,8.81
2019-03-22T01:57:25.116Z,8.83
2019-03-22T01:58:25.097Z,8.84
2019-03-22T01:59:25.067Z,8.89
2019-03-22T02:00:25.054Z,8.89
2019-03-22T02:01:25.024Z,8.77
2019-03-22T02:02:25.009Z,8.86
2019-03-22T02:03:24.980Z,8.84
2019-03-22T02:04:24.961Z,8.74
2019-03-22T02:05:24.939Z,8.86
2019-03-22T02:06:24.917Z,8.86
2019-03-22T02:07:24.895Z,8.79
2019-03-22T02:08:24.879Z,8.76
2019-03-22T02:09:24.851Z,8.87
2019-03-22T02:10:24.826Z,8.76
2019-03-22T02:11:24.808Z,8.94
2019-03-22T02:12:24.784Z,8.86
2019-03-22T02:13:24.773Z,8.84
2019-03-22T02:14:24.739Z,8.89
2019-03-22T02:15:24.718Z,8.89
2019-03-22T02:16:24.696Z,8.92
2019-03-22T02:17:24.674Z,8.92
2019-03-22T02:18:24.654Z,8.91
2019-03-22T02:19:24.632Z,8.89
2019-03-22T02:20:24.617Z,8.91
2019-03-22T02:21:24.587Z,8.86
2019-03-22T02:22:24.564Z,8.94
2019-03-22T02:23:24.542Z,8.84
2019-03-22T02:24:24.532Z,8.84
2019-03-22T02:25:24.503Z,8.71
2019-03-22T02:26:24.477Z,8.74
2019-03-22T02:27:24.454Z,8.83
2019-03-22T02:28:24.432Z,8.73
2019-03-22T02:29:24.412Z,8.74
2019-03-22T02:30:24.395Z,8.84
2019-03-22T02:31:24.376Z,8.77
2019-03-22T02:32:24.346Z,8.77
2019-03-22T02:33:24.326Z,8.83
2019-03-22T02:34:24.309Z,8.80
2019-03-22T02:35:29.075Z,8.87
2019-03-22T02:36:24.259Z,8.71
2019-03-22T02:37:24.241Z,8.73
2019-03-22T02:38:24.218Z,8.77
2019-03-22T02:39:24.394Z,8.62
2019-03-22T02:40:24.179Z,8.62
2019-03-22T02:41:24.152Z,8.55
2019-03-22T02:42:24.130Z,8.44
2019-03-22T02:43:24.111Z,8.43
2019-03-22T02:44:24.083Z,8.43
2019-03-22T02:45:24.066Z,8.37
2019-03-22T02:46:24.044Z,8.50
2019-03-22T02:47:24.021Z,8.53
2019-03-22T02:48:24.037Z,8.50
2019-03-22T02:49:23.976Z,8.55
2019-03-22T02:50:23.957Z,8.48
2019-03-22T02:51:23.954Z,8.47
2019-03-22T02:52:23.922Z,8.41
2019-03-22T02:53:23.891Z,8.55
2019-03-22T02:54:23.871Z,8.53
2019-03-22T02:55:23.841Z,8.55
2019-03-22T02:56:23.825Z,8.56
2019-03-22T02:57:23.798Z,8.56
2019-03-22T02:58:23.775Z,8.59
2019-03-22T02:59:23.768Z,8.58
2019-03-22T03:00:23.732Z,8.56
2019-03-22T03:01:23.715Z,8.65
2019-03-22T03:02:23.705Z,8.59
2019-03-22T03:03:23.669Z,8.62
2019-03-22T03:04:23.670Z,8.58
2019-03-22T03:05:23.622Z,8.58
2019-03-22T03:06:23.607Z,8.68
2019-03-22T03:07:23.585Z,8.61
2019-03-22T03:08:23.554Z,8.52
2019-03-22T03:09:23.533Z,8.50
2019-03-22T03:10:23.512Z,8.50
2019-03-22T03:11:23.488Z,8.55
2019-03-22T03:12:23.474Z,8.56
2019-03-22T03:13:23.477Z,8.58
2019-03-22T03:14:23.430Z,8.50
2019-03-22T03:15:23.403Z,8.38
2019-03-22T03:16:23.385Z,8.34
2019-03-22T03:17:23.357Z,8.30
2019-03-22T03:18:23.340Z,8.37
2019-03-22T03:19:23.316Z,8.33
2019-03-22T03:20:23.292Z,8.20
2019-03-22T03:21:23.280Z,7.97
2019-03-22T03:22:23.245Z,7.74
2019-03-22T03:23:23.224Z,7.52
2019-03-22T03:24:23.203Z,7.48
2019-03-22T03:25:23.184Z,7.49
2019-03-22T03:26:23.161Z,7.46
2019-03-22T03:27:23.136Z,7.48
2019-03-22T03:28:36.110Z,7.46
2019-03-22T03:29:23.090Z,7.48
2019-03-22T03:30:23.071Z,7.43
2019-03-22T03:31:23.054Z,7.45
2019-03-22T03:32:23.024Z,7.40
2019-03-22T03:33:23.003Z,7.34
2019-03-22T03:34:22.981Z,7.32
2019-03-22T03:35:22.981Z,7.24
2019-03-22T03:36:22.943Z,7.21
2019-03-22T03:37:22.929Z,7.24
2019-03-22T03:38:22.895Z,7.21
2019-03-22T03:39:22.872Z,7.23
2019-03-22T03:40:22.850Z,7.32
2019-03-22T03:41:22.825Z,7.35
2019-03-22T03:42:22.808Z,7.43
2019-03-22T03:43:22.781Z,7.42
2019-03-22T03:44:22.756Z,7.50
2019-03-22T03:45:22.744Z,7.67
2019-03-22T03:46:22.724Z,7.64
2019-03-22T03:47:22.690Z,7.69
2019-03-22T03:48:22.674Z,7.77
2019-03-22T03:49:22.645Z,7.72
2019-03-22T03:50:22.627Z,7.82
2019-03-22T03:51:22.609Z,7.83
2019-03-22T03:52:22.599Z,7.80
2019-03-22T03:53:22.561Z,7.71
2019-03-22T03:54:22.550Z,7.67
2019-03-22T03:55:22.511Z,7.53
2019-03-22T03:56:22.490Z,7.40
2019-03-22T03:57:22.470Z,7.31
2019-03-22T03:58:22.444Z,7.21
2019-03-22T03:59:22.423Z,7.23
2019-03-22T04:00:22.411Z,7.17
2019-03-22T04:01:22.378Z,7.20
2019-03-22T04:02:22.354Z,7.16
2019-03-22T04:03:22.335Z,7.27
2019-03-22T04:04:22.309Z,7.24
2019-03-22T04:05:22.291Z,7.25
2019-03-22T04:06:22.273Z,7.24
2019-03-22T04:07:22.244Z,7.39
2019-03-22T04:08:22.276Z,7.43
2019-03-22T04:09:22.206Z,7.48
2019-03-22T04:10:22.181Z,7.49
2019-03-22T04:11:22.154Z,7.46
2019-03-22T04:12:22.131Z,7.57
2019-03-22T04:13:22.119Z,7.55
2019-03-22T04:14:22.088Z,7.61
2019-03-22T04:15:22.065Z,7.50
2019-03-22T04:16:22.045Z,7.40
2019-03-22T04:17:22.020Z,7.24
2019-03-22T04:18:21.998Z,7.16
2019-03-22T04:19:21.978Z,6.94
2019-03-22T04:20:21.953Z,6.88
2019-03-22T04:21:21.932Z,6.76
2019-03-22T04:22:21.910Z,6.62
2019-03-22T04:23:21.885Z,6.44
2019-03-22T04:24:21.865Z,6.27
2019-03-22T04:25:22.051Z,6.17
2019-03-22T04:26:21.829Z,6.14
2019-03-22T04:27:21.797Z,5.99
2019-03-22T04:28:21.775Z,5.93
2019-03-22T04:29:21.752Z,5.93
2019-03-22T04:30:21.728Z,5.99
2019-03-22T04:31:21.710Z,6.09
2019-03-22T04:32:21.684Z,6.11
2019-03-22T04:33:21.664Z,6.19
2019-03-22T04:34:21.641Z,6.33
2019-03-22T04:35:21.615Z,6.37
2019-03-22T04:36:21.593Z,6.37
2019-03-22T04:37:21.573Z,6.41
2019-03-22T04:38:21.549Z,6.44
2019-03-22T04:39:21.526Z,6.58
2019-03-22T04:40:21.500Z,6.64
2019-03-22T04:41:21.487Z,6.70
2019-03-22T04:42:21.474Z,6.85
2019-03-22T04:43:21.432Z,6.87
2019-03-22T04:44:21.410Z,6.87
2019-03-22T04:45:21.391Z,6.94
2019-03-22T04:46:21.370Z,6.95
2019-03-22T04:47:21.349Z,6.98
2019-03-22T04:48:21.320Z,6.79
2019-03-22T04:49:21.296Z,6.76
2019-03-22T04:50:21.274Z,6.64
2019-03-22T04:51:21.253Z,6.52
2019-03-22T04:52:21.231Z,6.43
2019-03-22T04:53:22.042Z,6.43
2019-03-22T04:54:21.183Z,6.43
2019-03-22T04:55:21.160Z,6.44
2019-03-22T04:56:21.138Z,6.61
2019-03-22T04:57:21.116Z,6.62
2019-03-22T04:58:21.091Z,6.64
2019-03-22T04:59:21.067Z,6.69
2019-03-22T05:00:21.047Z,6.73
2019-03-22T05:01:21.030Z,6.76
2019-03-22T05:02:21.001Z,6.84
2019-03-22T05:03:20.983Z,6.73
2019-03-22T05:04:20.962Z,6.67
2019-03-22T05:05:20.938Z,6.55
2019-03-22T05:06:20.909Z,6.34
2019-03-22T05:07:20.884Z,6.25
2019-03-22T05:08:20.863Z,6.04
2019-03-22T05:09:20.840Z,5.90
2019-03-22T05:10:20.817Z,5.83
2019-03-22T05:11:20.794Z,5.65
2019-03-22T05:12:20.783Z,5.60
2019-03-22T05:13:20.748Z,5.64
2019-03-22T05:14:20.729Z,5.61
2019-03-22T05:15:20.705Z,5.65
2019-03-22T05:16:20.681Z,5.72
2019-03-22T05:17:20.669Z,5.81
2019-03-22T05:18:20.641Z,5.89
2019-03-22T05:19:20.611Z,5.94
2019-03-22T05:20:20.589Z,6.03
2019-03-22T05:21:20.566Z,6.09
2019-03-22T05:22:20.545Z,6.17
2019-03-22T05:23:20.522Z,6.21
2019-03-22T05:24:20.506Z,6.33
2019-03-22T05:25:20.476Z,6.30
2019-03-22T05:26:20.450Z,6.12
2019-03-22T05:27:20.427Z,6.21
2019-03-22T05:28:20.403Z,6.00
2019-03-22T05:29:30.301Z,5.96
2019-03-22T05:30:20.360Z,5.79
2019-03-22T05:31:20.345Z,5.65
2019-03-22T05:32:20.322Z,5.49
2019-03-22T05:33:20.290Z,5.54
2019-03-22T05:34:20.268Z,5.53
2019-03-22T05:35:20.244Z,5.54
2019-03-22T05:36:20.233Z,5.61
2019-03-22T05:37:20.197Z,5.61
2019-03-22T05:38:20.181Z,5.71
2019-03-22T05:39:20.152Z,5.74
2019-03-22T05:40:20.133Z,5.91
2019-03-22T05:41:20.106Z,6.00
2019-03-22T05:42:20.083Z,6.00
2019-03-22T05:43:20.062Z,6.04
2019-03-22T05:44:20.037Z,6.21
2019-03-22T05:45:20.013Z,6.17
2019-03-22T05:46:19.990Z,6.19
2019-03-22T05:47:19.968Z,6.17
2019-03-22T05:48:19.944Z,6.03
2019-03-22T05:49:19.923Z,5.96
2019-03-22T05:50:19.910Z,5.93
2019-03-22T05:51:19.878Z,5.96
2019-03-22T05:52:19.852Z,5.91
2019-03-22T05:53:19.832Z,5.96
2019-03-22T05:54:19.807Z,5.85
2019-03-22T05:55:19.788Z,5.94
2019-03-22T05:56:19.767Z,6.03
2019-03-22T05:57:19.738Z,6.00
2019-03-22T05:58:19.718Z,5.99
2019-03-22T05:59:19.696Z,6.15
2019-03-22T06:00:19.667Z,6.19
2019-03-22T06:01:19.714Z,6.22
2019-03-22T06:02:19.629Z,6.33
2019-03-22T06:03:19.602Z,6.38
2019-03-22T06:04:19.582Z,6.40
2019-03-22T06:05:19.560Z,6.34
2019-03-22T06:06:19.529Z,6.38
2019-03-22T06:07:19.508Z,6.54
2019-03-22T06:08:19.485Z,6.58
2019-03-22T06:09:19.462Z,6.56
2019-03-22T06:10:19.438Z,6.48
2019-03-22T06:11:19.418Z,6.43
2019-03-22T06:12:19.392Z,6.33
2019-03-22T06:13:19.375Z,6.15
2019-03-22T06:14:19.348Z,6.22
2019-03-22T06:15:19.325Z,6.25
2019-03-22T06:16:19.301Z,6.15
2019-03-22T06:17:19.278Z,6.18
2019-03-22T06:18:19.255Z,6.19
2019-03-22T06:19:19.230Z,6.14
2019-03-22T06:20:19.208Z,6.22
2019-03-22T06:21:19.187Z,6.28
2019-03-22T06:22:19.163Z,6.31
2019-03-22T06:23:19.137Z,6.33
2019-03-22T06:24:19.118Z,6.31
2019-03-22T06:25:19.111Z,6.33
2019-03-22T06:26:19.082Z,6.38
2019-03-22T06:27:19.052Z,6.48
2019-03-22T06:28:19.026Z,6.44
2019-03-22T06:29:19.004Z,6.59
2019-03-22T06:30:18.977Z,6.62
2019-03-22T06:31:20.733Z,6.64
2019-03-22T06:32:18.934Z,6.76
2019-03-22T06:33:18.913Z,6.79
2019-03-22T06:34:18.887Z,6.80
2019-03-22T06:35:18.864Z,6.84
2019-03-22T06:36:18.840Z,6.95
2019-03-22T06:37:18.819Z,6.92
2019-03-22T06:38:18.796Z,6.89
2019-03-22T06:39:18.775Z,7.07
2019-03-22T06:40:18.752Z,7.03
2019-03-22T06:41:18.729Z,7.05
2019-03-22T06:42:18.702Z,7.09
2019-03-22T06:43:18.684Z,6.98
2019-03-22T06:44:18.661Z,6.99
2019-03-22T06:45:18.633Z,6.91
2019-03-22T06:46:18.610Z,6.92
2019-03-22T06:47:18.585Z,6.81
2019-03-22T06:48:18.562Z,6.81
2019-03-22T06:49:18.541Z,6.76
2019-03-22T06:50:18.519Z,6.79
2019-03-22T06:51:18.497Z,6.77
2019-03-22T06:52:18.482Z,6.88
2019-03-22T06:53:18.452Z,6.85
2019-03-22T06:54:30.742Z,7.02
2019-03-22T06:55:18.405Z,7.07
2019-03-22T06:56:18.380Z,7.03
2019-03-22T06:57:18.358Z,7.15
2019-03-22T06:58:18.337Z,7.06
2019-03-22T06:59:18.320Z,7.12
2019-03-22T07:00:18.289Z,7.16
2019-03-22T07:01:18.268Z,7.27
2019-03-22T07:02:18.244Z,7.28
2019-03-22T07:03:18.222Z,7.35
2019-03-22T07:04:18.197Z,7.35
2019-03-22T07:05:18.177Z,7.45
2019-03-22T07:06:18.159Z,7.43
2019-03-22T07:07:18.135Z,7.52
2019-03-22T07:08:18.108Z,7.46
2019-03-22T07:09:18.092Z,7.55
2019-03-22T07:10:18.061Z,7.50
2019-03-22T07:11:18.041Z,7.67
2019-03-22T07:12:18.023Z,7.71
2019-03-22T07:13:18.006Z,7.67
2019-03-22T07:14:17.970Z,7.69
2019-03-22T07:15:17.954Z,7.79
2019-03-22T07:16:17.927Z,7.80
2019-03-22T07:17:17.907Z,7.82
2019-03-22T07:18:17.885Z,7.72
2019-03-22T07:19:17.857Z,7.72
2019-03-22T07:20:17.836Z,7.80
2019-03-22T07:21:17.813Z,7.85
2019-03-22T07:22:17.800Z,7.87
2019-03-22T07:23:17.768Z,7.87
2019-03-22T07:24:17.745Z,7.92
2019-03-22T07:25:17.726Z,7.97
2019-03-22T07:26:17.701Z,7.98
2019-03-22T07:27:17.677Z,8.05
2019-03-22T07:28:17.656Z,8.00
2019-03-22T07:29:17.633Z,8.08
2019-03-22T07:30:19.208Z,8.16
2019-03-22T07:31:17.590Z,8.10
2019-03-22T07:32:17.571Z,8.22
2019-03-22T07:33:17.544Z,8.19
2019-03-22T07:34:17.525Z,8.12
2019-03-22T07:35:17.499Z,8.20
2019-03-22T07:36:17.481Z,8.16
2019-03-22T07:37:17.454Z,8.20
2019-03-22T07:38:17.430Z,8.26
2019-03-22T07:39:17.411Z,8.25
2019-03-22T07:40:17.385Z,8.22
2019-03-22T07:41:17.375Z,8.28
2019-03-22T07:42:17.678Z,8.44
2019-03-22T07:43:17.320Z,8.38
2019-03-22T07:44:17.303Z,8.43
2019-03-22T07:45:17.274Z,8.44
2019-03-22T07:46:17.253Z,8.52
2019-03-22T07:47:17.242Z,8.58
2019-03-22T07:48:17.211Z,8.61
2019-03-22T07:49:17.189Z,8.65
2019-03-22T07:50:17.163Z,8.66
2019-03-22T07:51:17.141Z,8.66
2019-03-22T07:52:17.119Z,8.71
2019-03-22T07:53:17.099Z,8.61
2019-03-22T07:54:17.078Z,8.63
2019-03-22T07:55:17.063Z,8.74
2019-03-22T07:56:17.035Z,8.76
2019-03-22T07:57:17.013Z,8.76
2019-03-22T07:58:16.988Z,8.80
2019-03-22T07:59:16.969Z,8.87
2019-03-22T08:00:16.955Z,9.02
2019-03-22T08:01:16.921Z,8.96
2019-03-22T08:02:16.899Z,9.02
2019-03-22T08:03:16.888Z,9.02
2019-03-22T08:04:16.859Z,9.04
2019-03-22T08:05:16.835Z,9.17
2019-03-22T08:06:16.815Z,9.31
2019-03-22T08:07:16.790Z,9.32
2019-03-22T08:08:16.769Z,9.42
2019-03-22T08:09:16.748Z,9.54
2019-03-22T08:10:16.735Z,9.57
2019-03-22T08:11:16.701Z,9.68
2019-03-22T08:12:19.320Z,9.69
2019-03-22T08:13:16.658Z,9.86
2019-03-22T08:14:16.701Z,9.89
2019-03-22T08:15:16.613Z,9.79
2019-03-22T08:16:16.597Z,9.87
2019-03-22T08:17:16.572Z,9.96
2019-03-22T08:18:16.591Z,9.94
2019-03-22T08:19:16.560Z,10.05
2019-03-22T08:20:16.509Z,10.08
2019-03-22T08:21:16.487Z,10.18
2019-03-22T08:22:16.489Z,10.34
2019-03-22T08:23:16.442Z,10.38
2019-03-22T08:24:16.420Z,10.34
2019-03-22T08:25:16.400Z,10.42
2019-03-22T08:26:16.476Z,10.36
2019-03-22T08:27:16.371Z,10.48
2019-03-22T08:28:16.336Z,10.53
2019-03-22T08:29:16.343Z,10.70
2019-03-22T08:30:16.308Z,10.71
2019-03-22T08:31:16.307Z,10.78
2019-03-22T08:32:16.250Z,10.79
2019-03-22T08:33:16.254Z,10.84
2019-03-22T08:34:16.245Z,10.97
2019-03-22T08:35:16.188Z,11.00
2019-03-22T08:36:16.181Z,11.03
2019-03-22T08:37:16.177Z,11.14
2019-03-22T08:38:17.541Z,11.22
2019-03-22T08:39:16.099Z,11.28
2019-03-22T08:40:16.095Z,11.28
2019-03-22T08:41:16.063Z,11.35
2019-03-22T08:42:16.138Z,11.51
2019-03-22T08:43:16.014Z,11.40
2019-03-22T08:44:15.992Z,11.49
2019-03-22T08:45:15.991Z,11.54
2019-03-22T08:46:15.952Z,11.54
2019-03-22T08:47:15.931Z,11.61
2019-03-22T08:48:15.926Z,11.64
2019-03-22T08:49:15.996Z,11.76
2019-03-22T08:50:15.867Z,11.86
2019-03-22T08:51:15.871Z,11.90
2019-03-22T08:52:15.851Z,11.88
2019-03-22T08:53:15.821Z,12.02
2019-03-22T08:54:15.801Z,11.90
2019-03-22T08:55:15.765Z,12.04
2019-03-22T08:56:15.743Z,12.07
2019-03-22T08:57:15.720Z,12.05
2019-03-22T08:58:18.306Z,12.13
2019-03-22T08:59:15.681Z,12.23
2019-03-22T09:00:15.665Z,12.17
2019-03-22T09:01:15.642Z,12.35
2019-03-22T09:02:15.650Z,12.38
2019-03-22T09:03:15.600Z,12.41
2019-03-22T09:04:15.597Z,12.42
2019-03-22T09:05:15.580Z,12.50
2019-03-22T09:06:15.535Z,12.49
2019-03-22T09:07:15.514Z,12.56
2019-03-22T09:08:16.218Z,12.57
2019-03-22T09:09:15.468Z,12.67
2019-03-22T09:10:15.451Z,12.62
2019-03-22T09:11:18.037Z,12.70
2019-03-22T09:12:15.417Z,12.70
2019-03-22T09:13:15.415Z,12.85
2019-03-22T09:14:15.375Z,12.79
2019-03-22T09:15:15.347Z,12.87
2019-03-22T09:16:15.374Z,12.97
2019-03-22T09:17:15.303Z,12.93
2019-03-22T09:18:15.633Z,13.03
2019-03-22T09:19:15.265Z,13.10
2019-03-22T09:20:15.245Z,13.20
2019-03-22T09:21:15.254Z,13.25
2019-03-22T09:22:15.203Z,13.22
2019-03-22T09:23:15.185Z,13.29
2019-03-22T09:24:15.164Z,13.42
2019-03-22T09:25:15.153Z,13.42
2019-03-22T09:26:15.155Z,13.49
2019-03-22T09:27:15.105Z,13.48
2019-03-22T09:28:15.132Z,13.64
2019-03-22T09:29:15.094Z,13.66
2019-03-22T09:30:15.040Z,13.75
2019-03-22T09:31:15.017Z,13.73
2019-03-22T09:32:15.033Z,13.77
2019-03-22T09:33:14.982Z,13.89
2019-03-22T09:34:14.965Z,14.02
2019-03-22T09:35:14.934Z,14.00
2019-03-22T09:36:14.914Z,14.09
2019-03-22T09:37:14.912Z,14.03
2019-03-22T09:38:14.886Z,14.12
2019-03-22T09:39:14.864Z,14.17
2019-03-22T09:40:14.833Z,14.22
2019-03-22T09:41:14.813Z,14.37
2019-03-22T09:42:14.847Z,14.22
2019-03-22T09:43:14.778Z,14.32
2019-03-22T09:44:14.887Z,14.27
2019-03-22T09:45:14.795Z,14.35
2019-03-22T09:46:14.725Z,14.36
2019-03-22T09:47:16.507Z,14.54
2019-03-22T09:48:14.684Z,14.54
2019-03-22T09:49:14.694Z,14.54
2019-03-22T09:50:14.647Z,14.73
2019-03-22T09:51:14.644Z,14.75
2019-03-22T09:52:14.600Z,14.72
2019-03-22T09:53:14.580Z,14.80
2019-03-22T09:54:14.557Z,14.78
2019-03-22T09:55:14.766Z,14.91
2019-03-22T09:56:14.570Z,14.94
2019-03-22T09:57:14.551Z,14.96
2019-03-22T09:58:14.478Z,14.96
2019-03-22T09:59:14.472Z,15.01
2019-03-22T10:00:14.488Z,15.03
2019-03-22T10:01:23.677Z,15.11
2019-03-22T10:02:14.469Z,15.14
2019-03-22T10:03:14.378Z,15.21
2019-03-22T10:04:14.453Z,15.31
2019-03-22T10:05:14.343Z,15.28
2019-03-22T10:06:14.318Z,15.38
2019-03-22T10:07:14.305Z,15.36
2019-03-22T10:08:14.309Z,15.43
2019-03-22T10:09:14.281Z,15.43
2019-03-22T10:10:14.259Z,15.49
2019-03-22T10:11:14.271Z,15.54
2019-03-22T10:12:14.210Z,15.49
2019-03-22T10:13:14.226Z,15.47
2019-03-22T10:14:14.173Z,15.60
2019-03-22T10:15:14.144Z,15.59
2019-03-22T10:16:14.151Z,15.56
2019-03-22T10:17:14.107Z,15.69
2019-03-22T10:18:14.087Z,15.72
2019-03-22T10:19:14.066Z,15.67
2019-03-22T10:20:14.078Z,15.64
2019-03-22T10:21:22.413Z,15.68
2019-03-22T10:22:14.068Z,15.68
2019-03-22T10:23:14.021Z,15.68
2019-03-22T10:24:14.046Z,15.74
2019-03-22T10:25:13.961Z,15.75
2019-03-22T10:26:13.932Z,15.82
2019-03-22T10:27:13.910Z,15.86
2019-03-22T10:28:13.921Z,15.84
2019-03-22T10:29:13.874Z,15.92
2019-03-22T10:30:13.870Z,16.04
2019-03-22T10:31:13.838Z,16.12
2019-03-22T10:32:13.856Z,16.17
2019-03-22T10:33:22.493Z,16.25
2019-03-22T10:34:13.782Z,16.24
2019-03-22T10:35:25.426Z,16.28
2019-03-22T10:36:13.889Z,16.21
2019-03-22T10:37:13.737Z,16.39
2019-03-22T10:38:16.277Z,16.41
2019-03-22T10:39:13.691Z,16.43
2019-03-22T10:40:13.733Z,16.46
2019-03-22T10:41:13.647Z,16.43
2019-03-22T10:42:13.633Z,16.53
2019-03-22T10:43:13.633Z,16.64
2019-03-22T10:44:13.591Z,16.58
2019-03-22T10:45:13.579Z,16.64
2019-03-22T10:46:13.631Z,16.66
2019-03-22T10:47:13.533Z,16.70
2019-03-22T10:48:13.529Z,16.79
2019-03-22T10:49:13.513Z,16.78
2019-03-22T10:50:13.511Z,16.83
2019-03-22T10:51:13.618Z,16.81
2019-03-22T10:52:13.487Z,16.67
2019-03-22T10:53:13.473Z,16.63
2019-03-22T10:54:13.416Z,16.76
2019-03-22T10:55:28.943Z,16.82
2019-03-22T10:56:13.377Z,16.76
2019-03-22T10:57:13.348Z,16.75
2019-03-22T10:58:20.945Z,16.82
2019-03-22T10:59:13.317Z,16.86
2019-03-22T11:00:13.293Z,16.83
2019-03-22T11:01:13.287Z,16.98
2019-03-22T11:02:13.252Z,17.03
2019-03-22T11:03:13.238Z,16.97
2019-03-22T11:04:13.227Z,17.04
2019-03-22T11:05:13.216Z,17.01
2019-03-22T11:06:13.191Z,17.06
2019-03-22T11:07:13.169Z,17.16
2019-03-22T11:08:13.159Z,17.11
2019-03-22T11:09:13.126Z,17.07
2019-03-22T11:10:13.696Z,17.06
2019-03-22T11:11:13.089Z,17.04
2019-03-22T11:12:13.071Z,17.11
2019-03-22T11:13:13.058Z,17.14
2019-03-22T11:14:13.034Z,17.22
2019-03-22T11:15:13.020Z,17.37
2019-03-22T11:16:13.000Z,17.49
2019-03-22T11:17:12.983Z,17.38
2019-03-22T11:18:12.962Z,17.41
2019-03-22T11:19:12.942Z,17.40
2019-03-22T11:20:12.924Z,17.44
2019-03-22T11:21:12.905Z,17.44
2019-03-22T11:22:12.893Z,17.41
2019-03-22T11:23:12.870Z,17.40
2019-03-22T11:24:12.855Z,17.43
2019-03-22T11:25:12.838Z,17.43
2019-03-22T11:26:12.815Z,17.49
2019-03-22T11:27:13.763Z,17.43
2019-03-22T11:28:12.779Z,17.41
2019-03-22T11:29:12.760Z,17.40
2019-03-22T11:30:12.742Z,17.43
2019-03-22T11:31:12.724Z,17.55
2019-03-22T11:32:13.070Z,17.43
2019-03-22T11:33:12.689Z,17.38
2019-03-22T11:34:12.676Z,17.31
2019-03-22T11:35:12.659Z,17.41
2019-03-22T11:36:12.634Z,17.44
2019-03-22T11:37:12.616Z,17.54
2019-03-22T11:38:12.599Z,17.62
2019-03-22T11:39:15.892Z,17.51
2019-03-22T11:40:12.566Z,17.52
2019-03-22T11:41:12.545Z,17.64
2019-03-22T11:42:12.526Z,17.63
2019-03-22T11:43:12.515Z,17.59
2019-03-22T11:44:12.503Z,17.68
2019-03-22T11:45:12.477Z,17.70
2019-03-22T11:46:12.460Z,17.71
2019-03-22T11:47:12.433Z,17.84
2019-03-22T11:48:12.417Z,17.86
2019-03-22T11:49:12.399Z,17.78
2019-03-22T11:50:12.384Z,17.96
2019-03-22T11:51:12.364Z,17.84
2019-03-22T11:52:12.348Z,17.82
2019-03-22T11:53:12.333Z,17.84
2019-03-22T11:54:12.311Z,17.92
2019-03-22T11:55:12.293Z,17.93
2019-03-22T11:56:12.284Z,18.03
2019-03-22T11:57:12.258Z,18.03
2019-03-22T11:58:12.242Z,17.92
2019-03-22T11:59:12.235Z,17.90
2019-03-22T12:00:12.204Z,17.95
2019-03-22T12:01:19.287Z,17.92
2019-03-22T12:02:21.998Z,17.96
2019-03-22T12:03:12.152Z,17.95
2019-03-22T12:04:12.133Z,17.92
2019-03-22T12:05:12.125Z,18.07
2019-03-22T12:06:12.099Z,18.10
2019-03-22T12:07:12.091Z,18.14
2019-03-22T12:08:12.067Z,18.11
2019-03-22T12:09:12.051Z,18.14
2019-03-22T12:10:12.035Z,18.07
2019-03-22T12:11:12.011Z,18.17
2019-03-22T12:12:11.991Z,18.08
2019-03-22T12:13:11.974Z,18.07
2019-03-22T12:14:11.968Z,18.17
2019-03-22T12:15:11.937Z,18.18
2019-03-22T12:16:11.917Z,18.14
2019-03-22T12:17:11.902Z,18.18
2019-03-22T12:18:11.881Z,18.15
2019-03-22T12:19:11.870Z,18.14
2019-03-22T12:20:11.859Z,18.10
2019-03-22T12:21:11.840Z,18.10
2019-03-22T12:22:11.812Z,18.29
2019-03-22T12:23:11.805Z,18.18
2019-03-22T12:24:11.823Z,18.27
2019-03-22T12:25:11.760Z,18.25
2019-03-22T12:26:11.745Z,18.15
2019-03-22T12:27:11.723Z,18.15
2019-03-22T12:28:11.718Z,18.15
2019-03-22T12:29:11.695Z,18.15
2019-03-22T12:30:11.679Z,18.27
2019-03-22T12:31:11.651Z,18.18
2019-03-22T12:32:11.646Z,18.26
2019-03-22T12:33:11.630Z,18.26
2019-03-22T12:34:11.599Z,18.30
2019-03-22T12:35:11.591Z,18.23
2019-03-22T12:36:11.563Z,18.30
2019-03-22T12:37:11.547Z,18.27
2019-03-22T12:38:11.529Z,18.39
2019-03-22T12:39:11.507Z,18.37
2019-03-22T12:40:11.492Z,18.41
2019-03-22T12:41:11.478Z,18.44
2019-03-22T12:42:11.459Z,18.37
2019-03-22T12:43:11.444Z,18.33
2019-03-22T12:44:11.427Z,18.36
2019-03-22T12:45:11.405Z,18.29
2019-03-22T12:46:11.394Z,18.30
2019-03-22T12:47:11.370Z,18.25
2019-03-22T12:48:11.353Z,18.18
2019-03-22T12:49:11.335Z,18.25
2019-03-22T12:50:11.330Z,18.25
2019-03-22T12:51:11.299Z,18.32
2019-03-22T12:52:11.280Z,18.36
2019-03-22T12:53:11.264Z,18.26
2019-03-22T12:54:11.247Z,18.14
2019-03-22T12:55:11.235Z,18.17
2019-03-22T12:56:11.213Z,18.12
2019-03-22T12:57:11.204Z,18.23
2019-03-22T12:58:11.181Z,18.14
2019-03-22T12:59:11.156Z,18.15
2019-03-22T13:00:11.142Z,18.36
2019-03-22T13:01:11.125Z,18.42
2019-03-22T13:02:11.108Z,18.67
2019-03-22T13:03:11.087Z,18.67
2019-03-22T13:04:11.067Z,18.67
2019-03-22T13:05:11.054Z,18.76
2019-03-22T13:06:11.038Z,18.78
2019-03-22T13:07:11.017Z,18.69
2019-03-22T13:08:11.004Z,18.73